Airfield :







YOU CAN JOIN US ON...

 
LOGIN :

Register | Disclaimer

   EN    FR    IT 

 









Legend :    VFR   Marginal VFR   IFR   Intensive IFR   Very Intensive IFR
Visi :
Ceiling :
>= 8 km
>= 3000ft
5 to 8 km
1000 to 3000 ft
1500m to 5 km
500 to 1000 ft
800 to 1500m
200 to 500 ft
< 800m
< 200 ft
Symbols :   Thunderstorms  Fog  Heavy snow  Heavy precipitations  Wind > 20 kt







- Airport Elevation : 1442 ft
- IATA code : ZUM


CZUM - Churchill Falls

CURRENT METAR :
  • 260000Z AUTO VRB02KT 9SM CLR 12/09 A3021 RMK SLP242

EXPIRED METARs :
  • 252300Z AUTO 00000KT 9SM CLR 17/10 A3020 RMK SLP239 DENSITY ALT 1600FT
  • 252200Z AUTO 28004KT 9SM CLR 19/07 A3020 RMK SLP239 DENSITY ALT 1900FT

TAF TAF CZUM
Valid from the 25 at 20:00 until the 26 at 08:00 UTC


251939Z 2520/2608 32010KT P6SM SKC
BECMG 2522/2524 VRB03KT
FM260400 VRB03KT P6SM SKC
PROB30 2604/2608 1SM BR RMK FCST BASED ON AUTO OBS. NXT FCST BY 260200Z
No reported NOTAMs for that airfield.



MET'MAP, your aeronautical weather chart ! - Copyright ORBIFLY December 2007 - Disclaimer

ORBIFLY MET'MAP TEAM :

Programming & Development : Alexandra Zaïnal
Concept & Development : Baudouin d'Aumeries
Co-Development & Prog : Marc-Olivier Méhu
Technical & hardware support : Manuel Goepfert

Contact : metmap@orbifly.com




SOURCES & CREDITS :

   NOAA